Terminal Aerodrome Forecast
Issued by NWS Detroit/Pontiac, MI

Home | Current Version | Previous Version | Text Only | Print | Product List | Glossary On
Versions: 1 2 3 4 5 6 7 8 9 10 11 12 13 14 15 16 17 18 19 20 21 22 23 24 25 26
000
FTUS43 KDTX 042131 AAB
TAFDTW
TAF AMD
KDTW 042131Z 0422/0524 13005KT P6SM BKN030 OVC080
     FM042300 11005KT 3SM -SN BR OVC022
     FM050000 12005KT 1 1/2SM -SN BR OVC008
     FM050100 13005KT 1/2SM SN FG OVC004
     FM050300 16005KT 3/4SM -SN BR OVC005
     FM050500 22006KT 5SM BR OVC008
     FM050700 24008KT P6SM OVC014
     FM051800 22008KT P6SM SCT018 BKN035=

USA.gov is the U.S. government's official web portal to all federal, state and local government web resources and services.